<?xml version="1.0" encoding="utf-8"?>
<gpx xmlns:xsi="http://www.w3.org/2001/XMLSchema-instance" xmlns:xsd="http://www.w3.org/2001/XMLSchema" version="1.1" creator="Shapelink.com" xmlns="http://www.topografix.com/GPX/1/1" xmlns:gpxtpx="http://www.garmin.com/xmlschemas/TrackPointExtension/v1">
  <metadata>
    <name>Sykling 5.32 km, 2017-12-02</name>
    <desc></desc>
    <author><name>Jörgen Larsson</name></author> 
    <time>2017-12-02T12:14:27Z</time>
  </metadata>
  <trk>
    <name>Sykling 5.32 km, 2017-12-02</name>
    <trkseg>
      <trkpt lat="59.203119563724" lon="17.755737431501">
        <ele>53.4</ele>
        <time>2017-12-02T12:14:27Z</time>
      </trkpt>
      <trkpt lat="59.203049742497" lon="17.756009507975">
        <ele>53.8</ele>
        <time>2017-12-02T12:14:31Z</time>
      </trkpt>
      <trkpt lat="59.203015209069" lon="17.756292313281">
        <ele>53.8</ele>
        <time>2017-12-02T12:14:34Z</time>
      </trkpt>
      <trkpt lat="59.20288352942" lon="17.756639575398">
        <ele>53.6</ele>
        <time>2017-12-02T12:14:39Z</time>
      </trkpt>
      <trkpt lat="59.202713628307" lon="17.757198983404">
        <ele>55.4</ele>
        <time>2017-12-02T12:14:48Z</time>
      </trkpt>
      <trkpt lat="59.202624109615" lon="17.757622436992">
        <ele>56</ele>
        <time>2017-12-02T12:14:53Z</time>
      </trkpt>
      <trkpt lat="59.202542889004" lon="17.75785310688">
        <ele>56.2</ele>
        <time>2017-12-02T12:14:56Z</time>
      </trkpt>
      <trkpt lat="59.202202416226" lon="17.757838522374">
        <ele>54</ele>
        <time>2017-12-02T12:15:04Z</time>
      </trkpt>
      <trkpt lat="59.202163356572" lon="17.757653198565">
        <ele>52.4</ele>
        <time>2017-12-02T12:15:06Z</time>
      </trkpt>
      <trkpt lat="59.202124380737" lon="17.757466617471">
        <ele>51.4</ele>
        <time>2017-12-02T12:15:08Z</time>
      </trkpt>
      <trkpt lat="59.202021283367" lon="17.757078954596">
        <ele>50.2</ele>
        <time>2017-12-02T12:15:13Z</time>
      </trkpt>
      <trkpt lat="59.201972835985" lon="17.757009217188">
        <ele>48.6</ele>
        <time>2017-12-02T12:15:15Z</time>
      </trkpt>
      <trkpt lat="59.201929417743" lon="17.757084570469">
        <ele>46.6</ele>
        <time>2017-12-02T12:15:17Z</time>
      </trkpt>
      <trkpt lat="59.201916761074" lon="17.757318425479">
        <ele>45.2</ele>
        <time>2017-12-02T12:15:20Z</time>
      </trkpt>
      <trkpt lat="59.201913408314" lon="17.757616653481">
        <ele>44</ele>
        <time>2017-12-02T12:15:23Z</time>
      </trkpt>
      <trkpt lat="59.201915755246" lon="17.757725366724">
        <ele>43.8</ele>
        <time>2017-12-02T12:15:24Z</time>
      </trkpt>
      <trkpt lat="59.201981553161" lon="17.758731613819">
        <ele>43</ele>
        <time>2017-12-02T12:15:32Z</time>
      </trkpt>
      <trkpt lat="59.202003513739" lon="17.758849966247">
        <ele>42.6</ele>
        <time>2017-12-02T12:15:33Z</time>
      </trkpt>
      <trkpt lat="59.202054475691" lon="17.759057921186">
        <ele>42.4</ele>
        <time>2017-12-02T12:15:35Z</time>
      </trkpt>
      <trkpt lat="59.202121279434" lon="17.759230588326">
        <ele>41.4</ele>
        <time>2017-12-02T12:15:37Z</time>
      </trkpt>
      <trkpt lat="59.20226410701" lon="17.759428484985">
        <ele>40.4</ele>
        <time>2017-12-02T12:15:40Z</time>
      </trkpt>
      <trkpt lat="59.202315655695" lon="17.759479614575">
        <ele>40</ele>
        <time>2017-12-02T12:15:41Z</time>
      </trkpt>
      <trkpt lat="59.202472481044" lon="17.759620179038">
        <ele>39.8</ele>
        <time>2017-12-02T12:15:44Z</time>
      </trkpt>
      <trkpt lat="59.202827622147" lon="17.759839784818">
        <ele>39.4</ele>
        <time>2017-12-02T12:15:50Z</time>
      </trkpt>
      <trkpt lat="59.202887301275" lon="17.759910779511">
        <ele>39.2</ele>
        <time>2017-12-02T12:15:51Z</time>
      </trkpt>
      <trkpt lat="59.203265241146" lon="17.760400953023">
        <ele>38.2</ele>
        <time>2017-12-02T12:15:57Z</time>
      </trkpt>
      <trkpt lat="59.203509573531" lon="17.760748634235">
        <ele>36.8</ele>
        <time>2017-12-02T12:16:01Z</time>
      </trkpt>
      <trkpt lat="59.203626920131" lon="17.760917110425">
        <ele>35.6</ele>
        <time>2017-12-02T12:16:03Z</time>
      </trkpt>
      <trkpt lat="59.203781566186" lon="17.76114300263">
        <ele>34.6</ele>
        <time>2017-12-02T12:16:06Z</time>
      </trkpt>
      <trkpt lat="59.20411985967" lon="17.761992340557">
        <ele>34.2</ele>
        <time>2017-12-02T12:16:16Z</time>
      </trkpt>
      <trkpt lat="59.204323958935" lon="17.762646799309">
        <ele>35.4</ele>
        <time>2017-12-02T12:16:23Z</time>
      </trkpt>
      <trkpt lat="59.20439310961" lon="17.763143594522">
        <ele>35.4</ele>
        <time>2017-12-02T12:16:27Z</time>
      </trkpt>
      <trkpt lat="59.204605423137" lon="17.763661344485">
        <ele>34.6</ele>
        <time>2017-12-02T12:16:32Z</time>
      </trkpt>
      <trkpt lat="59.204672059242" lon="17.763802411862">
        <ele>33.2</ele>
        <time>2017-12-02T12:16:34Z</time>
      </trkpt>
      <trkpt lat="59.204689996508" lon="17.763935264977">
        <ele>31.8</ele>
        <time>2017-12-02T12:16:36Z</time>
      </trkpt>
      <trkpt lat="59.204664180256" lon="17.764058730364">
        <ele>30.6</ele>
        <time>2017-12-02T12:16:38Z</time>
      </trkpt>
      <trkpt lat="59.204601986558" lon="17.764192673126">
        <ele>30.2</ele>
        <time>2017-12-02T12:16:40Z</time>
      </trkpt>
      <trkpt lat="59.204357654173" lon="17.764741939033">
        <ele>29.6</ele>
        <time>2017-12-02T12:16:46Z</time>
      </trkpt>
      <trkpt lat="59.203981055406" lon="17.765645256396">
        <ele>29.2</ele>
        <time>2017-12-02T12:16:55Z</time>
      </trkpt>
      <trkpt lat="59.203853147612" lon="17.765971060849">
        <ele>29</ele>
        <time>2017-12-02T12:16:58Z</time>
      </trkpt>
      <trkpt lat="59.203525834417" lon="17.766869684348">
        <ele>29</ele>
        <time>2017-12-02T12:17:06Z</time>
      </trkpt>
      <trkpt lat="59.203462215796" lon="17.767099683684">
        <ele>28.8</ele>
        <time>2017-12-02T12:17:08Z</time>
      </trkpt>
      <trkpt lat="59.203332044889" lon="17.767702090837">
        <ele>28.6</ele>
        <time>2017-12-02T12:17:14Z</time>
      </trkpt>
      <trkpt lat="59.203011437214" lon="17.768638768162">
        <ele>29.8</ele>
        <time>2017-12-02T12:17:24Z</time>
      </trkpt>
      <trkpt lat="59.202680771259" lon="17.769548623407">
        <ele>30</ele>
        <time>2017-12-02T12:17:34Z</time>
      </trkpt>
      <trkpt lat="59.202649003858" lon="17.769627497086">
        <ele>30</ele>
        <time>2017-12-02T12:17:35Z</time>
      </trkpt>
      <trkpt lat="59.202528723593" lon="17.769846097038">
        <ele>30.2</ele>
        <time>2017-12-02T12:17:38Z</time>
      </trkpt>
      <trkpt lat="59.202052212578" lon="17.770428555269">
        <ele>30.2</ele>
        <time>2017-12-02T12:17:46Z</time>
      </trkpt>
      <trkpt lat="59.201634542501" lon="17.771099526364">
        <ele>28.6</ele>
        <time>2017-12-02T12:17:53Z</time>
      </trkpt>
      <trkpt lat="59.201581317436" lon="17.771216872964">
        <ele>28.2</ele>
        <time>2017-12-02T12:17:54Z</time>
      </trkpt>
      <trkpt lat="59.201530104027" lon="17.771336147401">
        <ele>27.8</ele>
        <time>2017-12-02T12:17:55Z</time>
      </trkpt>
      <trkpt lat="59.201316784672" lon="17.77182321961">
        <ele>26.8</ele>
        <time>2017-12-02T12:17:59Z</time>
      </trkpt>
      <trkpt lat="59.201035991022" lon="17.772402325081">
        <ele>25.8</ele>
        <time>2017-12-02T12:18:04Z</time>
      </trkpt>
      <trkpt lat="59.200872292515" lon="17.772726453154">
        <ele>24.4</ele>
        <time>2017-12-02T12:18:07Z</time>
      </trkpt>
      <trkpt lat="59.200443055416" lon="17.773505299302">
        <ele>23.4</ele>
        <time>2017-12-02T12:18:15Z</time>
      </trkpt>
      <trkpt lat="59.200393183111" lon="17.77360353517">
        <ele>23.4</ele>
        <time>2017-12-02T12:18:16Z</time>
      </trkpt>
      <trkpt lat="59.200263096023" lon="17.77392037099">
        <ele>23.4</ele>
        <time>2017-12-02T12:18:19Z</time>
      </trkpt>
      <trkpt lat="59.199992863567" lon="17.774898287263">
        <ele>23.6</ele>
        <time>2017-12-02T12:18:27Z</time>
      </trkpt>
      <trkpt lat="59.199735706875" lon="17.775852482759">
        <ele>23.6</ele>
        <time>2017-12-02T12:18:35Z</time>
      </trkpt>
      <trkpt lat="59.199491123033" lon="17.776791674654">
        <ele>23.2</ele>
        <time>2017-12-02T12:18:43Z</time>
      </trkpt>
      <trkpt lat="59.199241761508" lon="17.777736985336">
        <ele>23.2</ele>
        <time>2017-12-02T12:18:51Z</time>
      </trkpt>
      <trkpt lat="59.199036907872" lon="17.77883886991">
        <ele>23.8</ele>
        <time>2017-12-02T12:19:00Z</time>
      </trkpt>
      <trkpt lat="59.198980749142" lon="17.779331306535">
        <ele>24</ele>
        <time>2017-12-02T12:19:04Z</time>
      </trkpt>
      <trkpt lat="59.198902294558" lon="17.780149212337">
        <ele>24.2</ele>
        <time>2017-12-02T12:19:11Z</time>
      </trkpt>
      <trkpt lat="59.199066328341" lon="17.780432101462">
        <ele>24.4</ele>
        <time>2017-12-02T12:19:16Z</time>
      </trkpt>
      <trkpt lat="59.199626742175" lon="17.7807256356">
        <ele>24</ele>
        <time>2017-12-02T12:19:26Z</time>
      </trkpt>
      <trkpt lat="59.199946763117" lon="17.78090249369">
        <ele>23.6</ele>
        <time>2017-12-02T12:19:32Z</time>
      </trkpt>
      <trkpt lat="59.200050782496" lon="17.78143977348">
        <ele>24.4</ele>
        <time>2017-12-02T12:19:39Z</time>
      </trkpt>
      <trkpt lat="59.200038125827" lon="17.78157304569">
        <ele>25</ele>
        <time>2017-12-02T12:19:41Z</time>
      </trkpt>
      <trkpt lat="59.200033851058" lon="17.781683854408">
        <ele>25.4</ele>
        <time>2017-12-02T12:19:43Z</time>
      </trkpt>
      <trkpt lat="59.199990348997" lon="17.782052071275">
        <ele>26.4</ele>
        <time>2017-12-02T12:19:48Z</time>
      </trkpt>
      <trkpt lat="59.199963024003" lon="17.782285171914">
        <ele>27.6</ele>
        <time>2017-12-02T12:19:51Z</time>
      </trkpt>
      <trkpt lat="59.200157232626" lon="17.78311196253">
        <ele>29</ele>
        <time>2017-12-02T12:20:06Z</time>
      </trkpt>
      <trkpt lat="59.200158741368" lon="17.783341123676">
        <ele>29</ele>
        <time>2017-12-02T12:20:10Z</time>
      </trkpt>
      <trkpt lat="59.200347082661" lon="17.783223190343">
        <ele>29</ele>
        <time>2017-12-02T12:20:16Z</time>
      </trkpt>
      <trkpt lat="59.20079392175" lon="17.782544424081">
        <ele>29</ele>
        <time>2017-12-02T12:20:26Z</time>
      </trkpt>
      <trkpt lat="59.201302367804" lon="17.782234293781">
        <ele>29.8</ele>
        <time>2017-12-02T12:20:35Z</time>
      </trkpt>
      <trkpt lat="59.201700424235" lon="17.782109152014">
        <ele>30.8</ele>
        <time>2017-12-02T12:20:42Z</time>
      </trkpt>
      <trkpt lat="59.202100995236" lon="17.781991051043">
        <ele>31.4</ele>
        <time>2017-12-02T12:20:49Z</time>
      </trkpt>
      <trkpt lat="59.202336023712" lon="17.781946543154">
        <ele>31.6</ele>
        <time>2017-12-02T12:20:54Z</time>
      </trkpt>
      <trkpt lat="59.202428308431" lon="17.781936484874">
        <ele>31.8</ele>
        <time>2017-12-02T12:20:56Z</time>
      </trkpt>
      <trkpt lat="59.202540625891" lon="17.781687458625">
        <ele>31.8</ele>
        <time>2017-12-02T12:21:00Z</time>
      </trkpt>
      <trkpt lat="59.202273159462" lon="17.781453016882">
        <ele>31.8</ele>
        <time>2017-12-02T12:21:11Z</time>
      </trkpt>
      <trkpt lat="59.202271063987" lon="17.781598945761">
        <ele>31.8</ele>
        <time>2017-12-02T12:21:16Z</time>
      </trkpt>
      <trkpt lat="59.202296964058" lon="17.7816644084">
        <ele>74.2</ele>
        <time>2017-12-02T14:15:19Z</time>
      </trkpt>
      <trkpt lat="59.202281206086" lon="17.781664995133">
        <ele>56.2</ele>
        <time>2017-12-02T14:15:20Z</time>
      </trkpt>
      <trkpt lat="59.202287995425" lon="17.781621828348">
        <ele>47.2</ele>
        <time>2017-12-02T14:15:21Z</time>
      </trkpt>
      <trkpt lat="59.201929585381" lon="17.781498195323">
        <ele>38</ele>
        <time>2017-12-02T14:15:28Z</time>
      </trkpt>
      <trkpt lat="59.201918688911" lon="17.781464500085">
        <ele>38</ele>
        <time>2017-12-02T14:15:29Z</time>
      </trkpt>
      <trkpt lat="59.201969734682" lon="17.781365509846">
        <ele>37.8</ele>
        <time>2017-12-02T14:15:31Z</time>
      </trkpt>
      <trkpt lat="59.202017008598" lon="17.781321169595">
        <ele>37.8</ele>
        <time>2017-12-02T14:15:32Z</time>
      </trkpt>
      <trkpt lat="59.202070988034" lon="17.781297197361">
        <ele>37.8</ele>
        <time>2017-12-02T14:15:33Z</time>
      </trkpt>
      <trkpt lat="59.202217336008" lon="17.781309518754">
        <ele>38</ele>
        <time>2017-12-02T14:15:35Z</time>
      </trkpt>
      <trkpt lat="59.202345579078" lon="17.781380429628">
        <ele>38</ele>
        <time>2017-12-02T14:15:37Z</time>
      </trkpt>
      <trkpt lat="59.202414226839" lon="17.781496183667">
        <ele>38</ele>
        <time>2017-12-02T14:15:39Z</time>
      </trkpt>
      <trkpt lat="59.202427889336" lon="17.781641274356">
        <ele>38</ele>
        <time>2017-12-02T14:15:41Z</time>
      </trkpt>
      <trkpt lat="59.202431409734" lon="17.781801201008">
        <ele>38</ele>
        <time>2017-12-02T14:15:43Z</time>
      </trkpt>
      <trkpt lat="59.202438785806" lon="17.781929779354">
        <ele>38</ele>
        <time>2017-12-02T14:15:45Z</time>
      </trkpt>
      <trkpt lat="59.202424788033" lon="17.781996415459">
        <ele>38.2</ele>
        <time>2017-12-02T14:15:47Z</time>
      </trkpt>
      <trkpt lat="59.202416741409" lon="17.782007982481">
        <ele>38.4</ele>
        <time>2017-12-02T14:15:48Z</time>
      </trkpt>
      <trkpt lat="59.20240408474" lon="17.782014939458">
        <ele>38.4</ele>
        <time>2017-12-02T14:15:49Z</time>
      </trkpt>
      <trkpt lat="59.202364270715" lon="17.782032038534">
        <ele>38.6</ele>
        <time>2017-12-02T14:15:51Z</time>
      </trkpt>
      <trkpt lat="59.202289085072" lon="17.782035894208">
        <ele>38.6</ele>
        <time>2017-12-02T14:15:53Z</time>
      </trkpt>
      <trkpt lat="59.202204930796" lon="17.782023908091">
        <ele>38.6</ele>
        <time>2017-12-02T14:15:55Z</time>
      </trkpt>
      <trkpt lat="59.202115412104" lon="17.78202399191">
        <ele>38.6</ele>
        <time>2017-12-02T14:15:57Z</time>
      </trkpt>
      <trkpt lat="59.202019606987" lon="17.782026841756">
        <ele>38.6</ele>
        <time>2017-12-02T14:15:59Z</time>
      </trkpt>
      <trkpt lat="59.201912821581" lon="17.782050646352">
        <ele>38.2</ele>
        <time>2017-12-02T14:16:01Z</time>
      </trkpt>
      <trkpt lat="59.201802012863" lon="17.782080905011">
        <ele>38.2</ele>
        <time>2017-12-02T14:16:03Z</time>
      </trkpt>
      <trkpt lat="59.201689779222" lon="17.782107224177">
        <ele>38.2</ele>
        <time>2017-12-02T14:16:05Z</time>
      </trkpt>
      <trkpt lat="59.201575701563" lon="17.782131447868">
        <ele>38</ele>
        <time>2017-12-02T14:16:07Z</time>
      </trkpt>
      <trkpt lat="59.201461288628" lon="17.782163299088">
        <ele>38</ele>
        <time>2017-12-02T14:16:09Z</time>
      </trkpt>
      <trkpt lat="59.201347546245" lon="17.782196407593">
        <ele>37.6</ele>
        <time>2017-12-02T14:16:11Z</time>
      </trkpt>
      <trkpt lat="59.201290465506" lon="17.782212668479">
        <ele>37.6</ele>
        <time>2017-12-02T14:16:12Z</time>
      </trkpt>
      <trkpt lat="59.201233300948" lon="17.782229013184">
        <ele>37.6</ele>
        <time>2017-12-02T14:16:13Z</time>
      </trkpt>
      <trkpt lat="59.20111411033" lon="17.782271341779">
        <ele>37.4</ele>
        <time>2017-12-02T14:16:15Z</time>
      </trkpt>
      <trkpt lat="59.20099424916" lon="17.782329009251">
        <ele>37.2</ele>
        <time>2017-12-02T14:16:17Z</time>
      </trkpt>
      <trkpt lat="59.200874136533" lon="17.782402099419">
        <ele>37</ele>
        <time>2017-12-02T14:16:19Z</time>
      </trkpt>
      <trkpt lat="59.200751341698" lon="17.782492204844">
        <ele>37</ele>
        <time>2017-12-02T14:16:21Z</time>
      </trkpt>
      <trkpt lat="59.200634078917" lon="17.782602929743">
        <ele>37</ele>
        <time>2017-12-02T14:16:23Z</time>
      </trkpt>
      <trkpt lat="59.200515894127" lon="17.782724048198">
        <ele>36.8</ele>
        <time>2017-12-02T14:16:25Z</time>
      </trkpt>
      <trkpt lat="59.200390836179" lon="17.782834270183">
        <ele>36.4</ele>
        <time>2017-12-02T14:16:27Z</time>
      </trkpt>
      <trkpt lat="59.200257144874" lon="17.782885483592">
        <ele>35.8</ele>
        <time>2017-12-02T14:16:29Z</time>
      </trkpt>
      <trkpt lat="59.200136110238" lon="17.782841394798">
        <ele>35.6</ele>
        <time>2017-12-02T14:16:31Z</time>
      </trkpt>
      <trkpt lat="59.200041562406" lon="17.782704686009">
        <ele>35.4</ele>
        <time>2017-12-02T14:16:33Z</time>
      </trkpt>
      <trkpt lat="59.199957659587" lon="17.782562528985">
        <ele>35.4</ele>
        <time>2017-12-02T14:16:35Z</time>
      </trkpt>
      <trkpt lat="59.199891274939" lon="17.782469573714">
        <ele>35.4</ele>
        <time>2017-12-02T14:16:37Z</time>
      </trkpt>
      <trkpt lat="59.199858334072" lon="17.782379803565">
        <ele>35.4</ele>
        <time>2017-12-02T14:16:39Z</time>
      </trkpt>
      <trkpt lat="59.199859591357" lon="17.782284082267">
        <ele>35.2</ele>
        <time>2017-12-02T14:16:41Z</time>
      </trkpt>
      <trkpt lat="59.199866296877" lon="17.782224151682">
        <ele>35.2</ele>
        <time>2017-12-02T14:16:42Z</time>
      </trkpt>
      <trkpt lat="59.199874008225" lon="17.782149636591">
        <ele>35.2</ele>
        <time>2017-12-02T14:16:43Z</time>
      </trkpt>
      <trkpt lat="59.199895717346" lon="17.781977304727">
        <ele>35</ele>
        <time>2017-12-02T14:16:45Z</time>
      </trkpt>
      <trkpt lat="59.199903344875" lon="17.781892144623">
        <ele>35</ele>
        <time>2017-12-02T14:16:46Z</time>
      </trkpt>
      <trkpt lat="59.199907535825" lon="17.781811175469">
        <ele>35</ele>
        <time>2017-12-02T14:16:47Z</time>
      </trkpt>
      <trkpt lat="59.199926059824" lon="17.781663654029">
        <ele>35</ele>
        <time>2017-12-02T14:16:49Z</time>
      </trkpt>
      <trkpt lat="59.199949445325" lon="17.781507080137">
        <ele>35</ele>
        <time>2017-12-02T14:16:51Z</time>
      </trkpt>
      <trkpt lat="59.199963610736" lon="17.781295520981">
        <ele>35</ele>
        <time>2017-12-02T14:16:53Z</time>
      </trkpt>
      <trkpt lat="59.199946679298" lon="17.781059989591">
        <ele>35.2</ele>
        <time>2017-12-02T14:16:55Z</time>
      </trkpt>
      <trkpt lat="59.199867805619" lon="17.780898386559">
        <ele>35.2</ele>
        <time>2017-12-02T14:16:57Z</time>
      </trkpt>
      <trkpt lat="59.199761104032" lon="17.780815070473">
        <ele>35</ele>
        <time>2017-12-02T14:16:59Z</time>
      </trkpt>
      <trkpt lat="59.199702430732" lon="17.78078514709">
        <ele>34.6</ele>
        <time>2017-12-02T14:17:00Z</time>
      </trkpt>
      <trkpt lat="59.199643338337" lon="17.780758492648">
        <ele>34.2</ele>
        <time>2017-12-02T14:17:01Z</time>
      </trkpt>
      <trkpt lat="59.199529176859" lon="17.78069881352">
        <ele>32.8</ele>
        <time>2017-12-02T14:17:03Z</time>
      </trkpt>
      <trkpt lat="59.199422056177" lon="17.780627315913">
        <ele>32.2</ele>
        <time>2017-12-02T14:17:05Z</time>
      </trkpt>
      <trkpt lat="59.19930948726" lon="17.780559254885">
        <ele>31.8</ele>
        <time>2017-12-02T14:17:07Z</time>
      </trkpt>
      <trkpt lat="59.199250394865" lon="17.780529666778">
        <ele>31.6</ele>
        <time>2017-12-02T14:17:08Z</time>
      </trkpt>
      <trkpt lat="59.19919214066" lon="17.780499240481">
        <ele>31.4</ele>
        <time>2017-12-02T14:17:09Z</time>
      </trkpt>
      <trkpt lat="59.199078649734" lon="17.780435873317">
        <ele>31</ele>
        <time>2017-12-02T14:17:11Z</time>
      </trkpt>
      <trkpt lat="59.198972367242" lon="17.780371751782">
        <ele>31</ele>
        <time>2017-12-02T14:17:13Z</time>
      </trkpt>
      <trkpt lat="59.198927188801" lon="17.780333949413">
        <ele>31</ele>
        <time>2017-12-02T14:17:14Z</time>
      </trkpt>
      <trkpt lat="59.198891314269" lon="17.780288268058">
        <ele>31</ele>
        <time>2017-12-02T14:17:15Z</time>
      </trkpt>
      <trkpt lat="59.198849823864" lon="17.780161952825">
        <ele>31</ele>
        <time>2017-12-02T14:17:17Z</time>
      </trkpt>
      <trkpt lat="59.198854853004" lon="17.780010575711">
        <ele>31</ele>
        <time>2017-12-02T14:17:19Z</time>
      </trkpt>
      <trkpt lat="59.198864576008" lon="17.77992600234">
        <ele>31</ele>
        <time>2017-12-02T14:17:20Z</time>
      </trkpt>
      <trkpt lat="59.19887614303" lon="17.779836064553">
        <ele>31</ele>
        <time>2017-12-02T14:17:21Z</time>
      </trkpt>
      <trkpt lat="59.198897013961" lon="17.779644035224">
        <ele>31</ele>
        <time>2017-12-02T14:17:23Z</time>
      </trkpt>
      <trkpt lat="59.1989205671" lon="17.779447898764">
        <ele>31.2</ele>
        <time>2017-12-02T14:17:25Z</time>
      </trkpt>
      <trkpt lat="59.198945880438" lon="17.779245140603">
        <ele>31.2</ele>
        <time>2017-12-02T14:17:27Z</time>
      </trkpt>
      <trkpt lat="59.198974043622" lon="17.779034587275">
        <ele>31.2</ele>
        <time>2017-12-02T14:17:29Z</time>
      </trkpt>
      <trkpt lat="59.199000362788" lon="17.778818166617">
        <ele>31.2</ele>
        <time>2017-12-02T14:17:31Z</time>
      </trkpt>
      <trkpt lat="59.19902869361" lon="17.778598057923">
        <ele>31</ele>
        <time>2017-12-02T14:17:33Z</time>
      </trkpt>
      <trkpt lat="59.199060377192" lon="17.778373590641">
        <ele>31</ele>
        <time>2017-12-02T14:17:35Z</time>
      </trkpt>
      <trkpt lat="59.199096335543" lon="17.778148033712">
        <ele>31</ele>
        <time>2017-12-02T14:17:37Z</time>
      </trkpt>
      <trkpt lat="59.199117793207" lon="17.77803756027">
        <ele>31</ele>
        <time>2017-12-02T14:17:38Z</time>
      </trkpt>
      <trkpt lat="59.199143777097" lon="17.777930858683">
        <ele>31</ele>
        <time>2017-12-02T14:17:39Z</time>
      </trkpt>
      <trkpt lat="59.199201444569" lon="17.777720892088">
        <ele>31</ele>
        <time>2017-12-02T14:17:41Z</time>
      </trkpt>
      <trkpt lat="59.199257603299" lon="17.777510674036">
        <ele>31</ele>
        <time>2017-12-02T14:17:43Z</time>
      </trkpt>
      <trkpt lat="59.199314432581" lon="17.777298695785">
        <ele>31</ele>
        <time>2017-12-02T14:17:45Z</time>
      </trkpt>
      <trkpt lat="59.199373860252" lon="17.777081856032">
        <ele>31</ele>
        <time>2017-12-02T14:17:47Z</time>
      </trkpt>
      <trkpt lat="59.199433707018" lon="17.776870715971">
        <ele>31</ele>
        <time>2017-12-02T14:17:49Z</time>
      </trkpt>
      <trkpt lat="59.199489781929" lon="17.776657983349">
        <ele>31</ele>
        <time>2017-12-02T14:17:51Z</time>
      </trkpt>
      <trkpt lat="59.199548874324" lon="17.776446256555">
        <ele>30.8</ele>
        <time>2017-12-02T14:17:53Z</time>
      </trkpt>
      <trkpt lat="59.199605871244" lon="17.776230841725">
        <ele>30.6</ele>
        <time>2017-12-02T14:17:55Z</time>
      </trkpt>
      <trkpt lat="59.199634034428" lon="17.776119865369">
        <ele>30.6</ele>
        <time>2017-12-02T14:17:56Z</time>
      </trkpt>
      <trkpt lat="59.199664460725" lon="17.776005703891">
        <ele>30.6</ele>
        <time>2017-12-02T14:17:57Z</time>
      </trkpt>
      <trkpt lat="59.199729588088" lon="17.775782493894">
        <ele>30.4</ele>
        <time>2017-12-02T14:17:59Z</time>
      </trkpt>
      <trkpt lat="59.199791614148" lon="17.775560960277">
        <ele>30.4</ele>
        <time>2017-12-02T14:18:01Z</time>
      </trkpt>
      <trkpt lat="59.199853304932" lon="17.775344288162">
        <ele>30.4</ele>
        <time>2017-12-02T14:18:03Z</time>
      </trkpt>
      <trkpt lat="59.199913151698" lon="17.775131974635">
        <ele>30.4</ele>
        <time>2017-12-02T14:18:05Z</time>
      </trkpt>
      <trkpt lat="59.199972579369" lon="17.77492116985">
        <ele>30.4</ele>
        <time>2017-12-02T14:18:07Z</time>
      </trkpt>
      <trkpt lat="59.200032509954" lon="17.774708772504">
        <ele>30.4</ele>
        <time>2017-12-02T14:18:09Z</time>
      </trkpt>
      <trkpt lat="59.20008984215" lon="17.77449201657">
        <ele>30.4</ele>
        <time>2017-12-02T14:18:11Z</time>
      </trkpt>
      <trkpt lat="59.200150024192" lon="17.774270231496">
        <ele>30.4</ele>
        <time>2017-12-02T14:18:13Z</time>
      </trkpt>
      <trkpt lat="59.200209032768" lon="17.774052637372">
        <ele>30.4</ele>
        <time>2017-12-02T14:18:15Z</time>
      </trkpt>
      <trkpt lat="59.200271813199" lon="17.773836803447">
        <ele>30.4</ele>
        <time>2017-12-02T14:18:17Z</time>
      </trkpt>
      <trkpt lat="59.200347585575" lon="17.77364628286">
        <ele>30.4</ele>
        <time>2017-12-02T14:18:19Z</time>
      </trkpt>
      <trkpt lat="59.200436182258" lon="17.773477303756">
        <ele>30.6</ele>
        <time>2017-12-02T14:18:21Z</time>
      </trkpt>
      <trkpt lat="59.200529724262" lon="17.773308157014">
        <ele>30.6</ele>
        <time>2017-12-02T14:18:23Z</time>
      </trkpt>
      <trkpt lat="59.200619662049" lon="17.773139597005">
        <ele>30.6</ele>
        <time>2017-12-02T14:18:25Z</time>
      </trkpt>
      <trkpt lat="59.200710857121" lon="17.772972797195">
        <ele>30.6</ele>
        <time>2017-12-02T14:18:27Z</time>
      </trkpt>
      <trkpt lat="59.200803225659" lon="17.77279971096">
        <ele>30.6</ele>
        <time>2017-12-02T14:18:29Z</time>
      </trkpt>
      <trkpt lat="59.20089618093" lon="17.772623523422">
        <ele>30.6</ele>
        <time>2017-12-02T14:18:31Z</time>
      </trkpt>
      <trkpt lat="59.200987459821" lon="17.772441720011">
        <ele>30.8</ele>
        <time>2017-12-02T14:18:33Z</time>
      </trkpt>
      <trkpt lat="59.201079995997" lon="17.772260419514">
        <ele>30.8</ele>
        <time>2017-12-02T14:18:35Z</time>
      </trkpt>
      <trkpt lat="59.201172364535" lon="17.772077777913">
        <ele>30.8</ele>
        <time>2017-12-02T14:18:37Z</time>
      </trkpt>
      <trkpt lat="59.201259787752" lon="17.771892035009">
        <ele>30.8</ele>
        <time>2017-12-02T14:18:39Z</time>
      </trkpt>
      <trkpt lat="59.201342265648" lon="17.771702855526">
        <ele>30.8</ele>
        <time>2017-12-02T14:18:41Z</time>
      </trkpt>
      <trkpt lat="59.20142340244" lon="17.771516190613">
        <ele>30.8</ele>
        <time>2017-12-02T14:18:43Z</time>
      </trkpt>
      <trkpt lat="59.20149883954" lon="17.771329777157">
        <ele>30.8</ele>
        <time>2017-12-02T14:18:45Z</time>
      </trkpt>
      <trkpt lat="59.201570504785" lon="17.771154176352">
        <ele>31</ele>
        <time>2017-12-02T14:18:47Z</time>
      </trkpt>
      <trkpt lat="59.201604367661" lon="17.77107052499">
        <ele>31</ele>
        <time>2017-12-02T14:18:48Z</time>
      </trkpt>
      <trkpt lat="59.201639320184" lon="17.77098922056">
        <ele>31.2</ele>
        <time>2017-12-02T14:18:49Z</time>
      </trkpt>
      <trkpt lat="59.201709560506" lon="17.770831305564">
        <ele>31.8</ele>
        <time>2017-12-02T14:18:51Z</time>
      </trkpt>
      <trkpt lat="59.201784159416" lon="17.770688980902">
        <ele>32.2</ele>
        <time>2017-12-02T14:18:53Z</time>
      </trkpt>
      <trkpt lat="59.201861272896" lon="17.770565180239">
        <ele>32.6</ele>
        <time>2017-12-02T14:18:55Z</time>
      </trkpt>
      <trkpt lat="59.201899578179" lon="17.770504998197">
        <ele>33</ele>
        <time>2017-12-02T14:18:56Z</time>
      </trkpt>
      <trkpt lat="59.2019380511" lon="17.77045026439">
        <ele>33.6</ele>
        <time>2017-12-02T14:18:57Z</time>
      </trkpt>
      <trkpt lat="59.202014074933" lon="17.770342473156">
        <ele>33.8</ele>
        <time>2017-12-02T14:18:59Z</time>
      </trkpt>
      <trkpt lat="59.202092026603" lon="17.770236945035">
        <ele>34.2</ele>
        <time>2017-12-02T14:19:01Z</time>
      </trkpt>
      <trkpt lat="59.202168888626" lon="17.770123705566">
        <ele>34.4</ele>
        <time>2017-12-02T14:19:03Z</time>
      </trkpt>
      <trkpt lat="59.202246253563" lon="17.770012896848">
        <ele>34.8</ele>
        <time>2017-12-02T14:19:05Z</time>
      </trkpt>
      <trkpt lat="59.202327222717" lon="17.769907536365">
        <ele>35.2</ele>
        <time>2017-12-02T14:19:07Z</time>
      </trkpt>
      <trkpt lat="59.202408108052" lon="17.76980737266">
        <ele>35.4</ele>
        <time>2017-12-02T14:19:09Z</time>
      </trkpt>
      <trkpt lat="59.202483628971" lon="17.769710226439">
        <ele>35.8</ele>
        <time>2017-12-02T14:19:11Z</time>
      </trkpt>
      <trkpt lat="59.202552863465" lon="17.769616935892">
        <ele>36.2</ele>
        <time>2017-12-02T14:19:13Z</time>
      </trkpt>
      <trkpt lat="59.202582451572" lon="17.769569494338">
        <ele>36.4</ele>
        <time>2017-12-02T14:19:14Z</time>
      </trkpt>
      <trkpt lat="59.202607932548" lon="17.769519538214">
        <ele>36.4</ele>
        <time>2017-12-02T14:19:15Z</time>
      </trkpt>
      <trkpt lat="59.202656463749" lon="17.769414680645">
        <ele>36.6</ele>
        <time>2017-12-02T14:19:17Z</time>
      </trkpt>
      <trkpt lat="59.202715639963" lon="17.769286102299">
        <ele>37.2</ele>
        <time>2017-12-02T14:19:19Z</time>
      </trkpt>
      <trkpt lat="59.202746652993" lon="17.769222986592">
        <ele>37.4</ele>
        <time>2017-12-02T14:19:20Z</time>
      </trkpt>
      <trkpt lat="59.202776660195" lon="17.769156769582">
        <ele>37.6</ele>
        <time>2017-12-02T14:19:21Z</time>
      </trkpt>
      <trkpt lat="59.202836339323" lon="17.769011343617">
        <ele>38</ele>
        <time>2017-12-02T14:19:23Z</time>
      </trkpt>
      <trkpt lat="59.202895012623" lon="17.768842699789">
        <ele>38</ele>
        <time>2017-12-02T14:19:25Z</time>
      </trkpt>
      <trkpt lat="59.20295812833" lon="17.768675480884">
        <ele>38</ele>
        <time>2017-12-02T14:19:27Z</time>
      </trkpt>
      <trkpt lat="59.203021495494" lon="17.768502897563">
        <ele>38</ele>
        <time>2017-12-02T14:19:29Z</time>
      </trkpt>
      <trkpt lat="59.203084108287" lon="17.768325201283">
        <ele>38</ele>
        <time>2017-12-02T14:19:31Z</time>
      </trkpt>
      <trkpt lat="59.20315007384" lon="17.76814524189">
        <ele>37.8</ele>
        <time>2017-12-02T14:19:33Z</time>
      </trkpt>
      <trkpt lat="59.203213692461" lon="17.767962767927">
        <ele>37.6</ele>
        <time>2017-12-02T14:19:35Z</time>
      </trkpt>
      <trkpt lat="59.203275299426" lon="17.767780796878">
        <ele>37.4</ele>
        <time>2017-12-02T14:19:37Z</time>
      </trkpt>
      <trkpt lat="59.203336571115" lon="17.767604022607">
        <ele>37.4</ele>
        <time>2017-12-02T14:19:39Z</time>
      </trkpt>
      <trkpt lat="59.203363393195" lon="17.767513917182">
        <ele>37.4</ele>
        <time>2017-12-02T14:19:40Z</time>
      </trkpt>
      <trkpt lat="59.203386527239" lon="17.767421381006">
        <ele>37.4</ele>
        <time>2017-12-02T14:19:41Z</time>
      </trkpt>
      <trkpt lat="59.203429274929" lon="17.767224406356">
        <ele>37.4</ele>
        <time>2017-12-02T14:19:43Z</time>
      </trkpt>
      <trkpt lat="59.203474788646" lon="17.767002118368">
        <ele>37.4</ele>
        <time>2017-12-02T14:19:45Z</time>
      </trkpt>
      <trkpt lat="59.203535808878" lon="17.76677731581">
        <ele>37.2</ele>
        <time>2017-12-02T14:19:47Z</time>
      </trkpt>
      <trkpt lat="59.203608060856" lon="17.7665602246">
        <ele>37.2</ele>
        <time>2017-12-02T14:19:49Z</time>
      </trkpt>
      <trkpt lat="59.203683833232" lon="17.766344558313">
        <ele>37</ele>
        <time>2017-12-02T14:19:51Z</time>
      </trkpt>
      <trkpt lat="59.203721384144" lon="17.766236431803">
        <ele>37</ele>
        <time>2017-12-02T14:19:52Z</time>
      </trkpt>
      <trkpt lat="59.203759354151" lon="17.766130484587">
        <ele>36.8</ele>
        <time>2017-12-02T14:19:53Z</time>
      </trkpt>
      <trkpt lat="59.203834288337" lon="17.765925295675">
        <ele>36.4</ele>
        <time>2017-12-02T14:19:55Z</time>
      </trkpt>
      <trkpt lat="59.203906372677" lon="17.765722118419">
        <ele>36.4</ele>
        <time>2017-12-02T14:19:57Z</time>
      </trkpt>
      <trkpt lat="59.203979630483" lon="17.765523635027">
        <ele>36.4</ele>
        <time>2017-12-02T14:19:59Z</time>
      </trkpt>
      <trkpt lat="59.204051798642" lon="17.765327498567">
        <ele>36.4</ele>
        <time>2017-12-02T14:20:01Z</time>
      </trkpt>
      <trkpt lat="59.204127235742" lon="17.76513781617">
        <ele>36.4</ele>
        <time>2017-12-02T14:20:03Z</time>
      </trkpt>
      <trkpt lat="59.204204935955" lon="17.764951151257">
        <ele>36.4</ele>
        <time>2017-12-02T14:20:05Z</time>
      </trkpt>
      <trkpt lat="59.204282049435" lon="17.764765408353">
        <ele>36.4</ele>
        <time>2017-12-02T14:20:07Z</time>
      </trkpt>
      <trkpt lat="59.204360252562" lon="17.764580252182">
        <ele>36.4</ele>
        <time>2017-12-02T14:20:09Z</time>
      </trkpt>
      <trkpt lat="59.204438539508" lon="17.764397526762">
        <ele>36.8</ele>
        <time>2017-12-02T14:20:11Z</time>
      </trkpt>
      <trkpt lat="59.204517413187" lon="17.764221842138">
        <ele>36.8</ele>
        <time>2017-12-02T14:20:13Z</time>
      </trkpt>
      <trkpt lat="59.20459008426" lon="17.764058395088">
        <ele>37.2</ele>
        <time>2017-12-02T14:20:15Z</time>
      </trkpt>
      <trkpt lat="59.204654792528" lon="17.763919004091">
        <ele>37.2</ele>
        <time>2017-12-02T14:20:17Z</time>
      </trkpt>
      <trkpt lat="59.204684380635" lon="17.763788414089">
        <ele>37.4</ele>
        <time>2017-12-02T14:20:19Z</time>
      </trkpt>
      <trkpt lat="59.204660911315" lon="17.763654638965">
        <ele>37.4</ele>
        <time>2017-12-02T14:20:21Z</time>
      </trkpt>
      <trkpt lat="59.204598047065" lon="17.763516505253">
        <ele>37.4</ele>
        <time>2017-12-02T14:20:23Z</time>
      </trkpt>
      <trkpt lat="59.204517329368" lon="17.76335917699">
        <ele>37.4</ele>
        <time>2017-12-02T14:20:25Z</time>
      </trkpt>
      <trkpt lat="59.204434348558" lon="17.763185168746">
        <ele>37.4</ele>
        <time>2017-12-02T14:20:27Z</time>
      </trkpt>
      <trkpt lat="59.204400401863" lon="17.763090620914">
        <ele>37.4</ele>
        <time>2017-12-02T14:20:28Z</time>
      </trkpt>
      <trkpt lat="59.204373160688" lon="17.762997498005">
        <ele>37.4</ele>
        <time>2017-12-02T14:20:29Z</time>
      </trkpt>
      <trkpt lat="59.204338711079" lon="17.762825836693">
        <ele>37.4</ele>
        <time>2017-12-02T14:20:31Z</time>
      </trkpt>
      <trkpt lat="59.20432856898" lon="17.762735898906">
        <ele>37.6</ele>
        <time>2017-12-02T14:20:32Z</time>
      </trkpt>
      <trkpt lat="59.204320103261" lon="17.76264839187">
        <ele>37.6</ele>
        <time>2017-12-02T14:20:33Z</time>
      </trkpt>
      <trkpt lat="59.204299399968" lon="17.762498858774">
        <ele>37.8</ele>
        <time>2017-12-02T14:20:35Z</time>
      </trkpt>
      <trkpt lat="59.204268638395" lon="17.762369106962">
        <ele>37.8</ele>
        <time>2017-12-02T14:20:37Z</time>
      </trkpt>
      <trkpt lat="59.204234272605" lon="17.762248323783">
        <ele>38.4</ele>
        <time>2017-12-02T14:20:39Z</time>
      </trkpt>
      <trkpt lat="59.204213653131" lon="17.762186381542">
        <ele>39</ele>
        <time>2017-12-02T14:20:40Z</time>
      </trkpt>
      <trkpt lat="59.204191608734" lon="17.762122092369">
        <ele>39.6</ele>
        <time>2017-12-02T14:20:41Z</time>
      </trkpt>
      <trkpt lat="59.20416679831" lon="17.762056210635">
        <ele>40.2</ele>
        <time>2017-12-02T14:20:42Z</time>
      </trkpt>
      <trkpt lat="59.204136958746" lon="17.761988820159">
        <ele>41.4</ele>
        <time>2017-12-02T14:20:43Z</time>
      </trkpt>
      <trkpt lat="59.204073675401" lon="17.76184205309">
        <ele>42.4</ele>
        <time>2017-12-02T14:20:45Z</time>
      </trkpt>
      <trkpt lat="59.20401173316" lon="17.761693609641">
        <ele>43</ele>
        <time>2017-12-02T14:20:47Z</time>
      </trkpt>
      <trkpt lat="59.203949874738" lon="17.76153276098">
        <ele>43.2</ele>
        <time>2017-12-02T14:20:49Z</time>
      </trkpt>
      <trkpt lat="59.203886256117" lon="17.761354729424">
        <ele>43.4</ele>
        <time>2017-12-02T14:20:51Z</time>
      </trkpt>
      <trkpt lat="59.203809897008" lon="17.761169573253">
        <ele>43.4</ele>
        <time>2017-12-02T14:20:53Z</time>
      </trkpt>
      <trkpt lat="59.203717025556" lon="17.761004366004">
        <ele>43.6</ele>
        <time>2017-12-02T14:20:55Z</time>
      </trkpt>
      <trkpt lat="59.203616275118" lon="17.760855084365">
        <ele>43.6</ele>
        <time>2017-12-02T14:20:57Z</time>
      </trkpt>
      <trkpt lat="59.203513596843" lon="17.760718543214">
        <ele>43.2</ele>
        <time>2017-12-02T14:20:59Z</time>
      </trkpt>
      <trkpt lat="59.203415696251" lon="17.760584684271">
        <ele>42.8</ele>
        <time>2017-12-02T14:21:01Z</time>
      </trkpt>
      <trkpt lat="59.203317963297" lon="17.760450825328">
        <ele>42.6</ele>
        <time>2017-12-02T14:21:03Z</time>
      </trkpt>
      <trkpt lat="59.203223666922" lon="17.760316631109">
        <ele>42.4</ele>
        <time>2017-12-02T14:21:05Z</time>
      </trkpt>
      <trkpt lat="59.203130208737" lon="17.760203475459">
        <ele>42.4</ele>
        <time>2017-12-02T14:21:07Z</time>
      </trkpt>
      <trkpt lat="59.203046389737" lon="17.760100126632">
        <ele>42.4</ele>
        <time>2017-12-02T14:21:09Z</time>
      </trkpt>
      <trkpt lat="59.202970282085" lon="17.760006500809">
        <ele>42.4</ele>
        <time>2017-12-02T14:21:11Z</time>
      </trkpt>
      <trkpt lat="59.202899622668" lon="17.759916646841">
        <ele>42.6</ele>
        <time>2017-12-02T14:21:13Z</time>
      </trkpt>
      <trkpt lat="59.202830304355" lon="17.759829307443">
        <ele>42.8</ele>
        <time>2017-12-02T14:21:15Z</time>
      </trkpt>
      <trkpt lat="59.202765847544" lon="17.759741632769">
        <ele>43.4</ele>
        <time>2017-12-02T14:21:17Z</time>
      </trkpt>
      <trkpt lat="59.202734163962" lon="17.759702405477">
        <ele>43.8</ele>
        <time>2017-12-02T14:21:18Z</time>
      </trkpt>
      <trkpt lat="59.202700217267" lon="17.759670554257">
        <ele>44.2</ele>
        <time>2017-12-02T14:21:19Z</time>
      </trkpt>
      <trkpt lat="59.202625869814" lon="17.759638200123">
        <ele>45</ele>
        <time>2017-12-02T14:21:21Z</time>
      </trkpt>
      <trkpt lat="59.202549426886" lon="17.759625794911">
        <ele>45.6</ele>
        <time>2017-12-02T14:21:23Z</time>
      </trkpt>
      <trkpt lat="59.202509026128" lon="17.759613473518">
        <ele>46</ele>
        <time>2017-12-02T14:21:24Z</time>
      </trkpt>
      <trkpt lat="59.202469044465" lon="17.759589166008">
        <ele>46.2</ele>
        <time>2017-12-02T14:21:25Z</time>
      </trkpt>
      <trkpt lat="59.20239318827" lon="17.759507023388">
        <ele>46.8</ele>
        <time>2017-12-02T14:21:27Z</time>
      </trkpt>
      <trkpt lat="59.202318840817" lon="17.759419097257">
        <ele>47</ele>
        <time>2017-12-02T14:21:29Z</time>
      </trkpt>
      <trkpt lat="59.202280619353" lon="17.759377187757">
        <ele>47.2</ele>
        <time>2017-12-02T14:21:30Z</time>
      </trkpt>
      <trkpt lat="59.202243068441" lon="17.75933335042">
        <ele>47.2</ele>
        <time>2017-12-02T14:21:31Z</time>
      </trkpt>
      <trkpt lat="59.202172660481" lon="17.759236707113">
        <ele>47.4</ele>
        <time>2017-12-02T14:21:33Z</time>
      </trkpt>
      <trkpt lat="59.202120944158" lon="17.759125144024">
        <ele>47.4</ele>
        <time>2017-12-02T14:21:35Z</time>
      </trkpt>
      <trkpt lat="59.202083644703" lon="17.759010228175">
        <ele>47.6</ele>
        <time>2017-12-02T14:21:37Z</time>
      </trkpt>
      <trkpt lat="59.202044249773" lon="17.75886396402">
        <ele>47.8</ele>
        <time>2017-12-02T14:21:39Z</time>
      </trkpt>
      <trkpt lat="59.202006447404" lon="17.758702528626">
        <ele>48.2</ele>
        <time>2017-12-02T14:21:41Z</time>
      </trkpt>
      <trkpt lat="59.201991443803" lon="17.75861837435">
        <ele>48.2</ele>
        <time>2017-12-02T14:21:42Z</time>
      </trkpt>
      <trkpt lat="59.201979038591" lon="17.758529861486">
        <ele>48.2</ele>
        <time>2017-12-02T14:21:43Z</time>
      </trkpt>
      <trkpt lat="59.20196403499" lon="17.758348141894">
        <ele>48.4</ele>
        <time>2017-12-02T14:21:45Z</time>
      </trkpt>
      <trkpt lat="59.201952803244" lon="17.758163740094">
        <ele>48.6</ele>
        <time>2017-12-02T14:21:47Z</time>
      </trkpt>
      <trkpt lat="59.20194559481" lon="17.757983948339">
        <ele>48.6</ele>
        <time>2017-12-02T14:21:49Z</time>
      </trkpt>
      <trkpt lat="59.201941068584" lon="17.757813292855">
        <ele>48.8</ele>
        <time>2017-12-02T14:21:51Z</time>
      </trkpt>
      <trkpt lat="59.201934614521" lon="17.757646241588">
        <ele>49</ele>
        <time>2017-12-02T14:21:53Z</time>
      </trkpt>
      <trkpt lat="59.201931680856" lon="17.75756393133">
        <ele>49.2</ele>
        <time>2017-12-02T14:21:54Z</time>
      </trkpt>
      <trkpt lat="59.201931680856" lon="17.757481201977">
        <ele>49.4</ele>
        <time>2017-12-02T14:21:55Z</time>
      </trkpt>
      <trkpt lat="59.201935368892" lon="17.757313647796">
        <ele>49.8</ele>
        <time>2017-12-02T14:21:57Z</time>
      </trkpt>
      <trkpt lat="59.201945091896" lon="17.757136286792">
        <ele>50</ele>
        <time>2017-12-02T14:21:59Z</time>
      </trkpt>
      <trkpt lat="59.201952467968" lon="17.756961440358">
        <ele>50.2</ele>
        <time>2017-12-02T14:22:01Z</time>
      </trkpt>
      <trkpt lat="59.201961688058" lon="17.756792628892">
        <ele>50.4</ele>
        <time>2017-12-02T14:22:03Z</time>
      </trkpt>
      <trkpt lat="59.201971494881" lon="17.756658518492">
        <ele>50.8</ele>
        <time>2017-12-02T14:22:05Z</time>
      </trkpt>
      <trkpt lat="59.201982810446" lon="17.756532873811">
        <ele>51.2</ele>
        <time>2017-12-02T14:22:07Z</time>
      </trkpt>
      <trkpt lat="59.20199169526" lon="17.756467830267">
        <ele>51.4</ele>
        <time>2017-12-02T14:22:08Z</time>
      </trkpt>
      <trkpt lat="59.202001669721" lon="17.756398595773">
        <ele>51.6</ele>
        <time>2017-12-02T14:22:09Z</time>
      </trkpt>
      <trkpt lat="59.202021534824" lon="17.756241602786">
        <ele>51.6</ele>
        <time>2017-12-02T14:22:11Z</time>
      </trkpt>
      <trkpt lat="59.202033688579" lon="17.756156107406">
        <ele>51.8</ele>
        <time>2017-12-02T14:22:12Z</time>
      </trkpt>
      <trkpt lat="59.20204533942" lon="17.756071282578">
        <ele>52.2</ele>
        <time>2017-12-02T14:22:13Z</time>
      </trkpt>
      <trkpt lat="59.202056152071" lon="17.75598310499">
        <ele>52.4</ele>
        <time>2017-12-02T14:22:14Z</time>
      </trkpt>
      <trkpt lat="59.202067551455" lon="17.755891155547">
        <ele>52.6</ele>
        <time>2017-12-02T14:22:15Z</time>
      </trkpt>
      <trkpt lat="59.20209143987" lon="17.755697198381">
        <ele>53</ele>
        <time>2017-12-02T14:22:17Z</time>
      </trkpt>
      <trkpt lat="59.202113316629" lon="17.75549444022">
        <ele>53.2</ele>
        <time>2017-12-02T14:22:19Z</time>
      </trkpt>
      <trkpt lat="59.202133517008" lon="17.755291179145">
        <ele>53.2</ele>
        <time>2017-12-02T14:22:21Z</time>
      </trkpt>
      <trkpt lat="59.202155812862" lon="17.755097641074">
        <ele>53.2</ele>
        <time>2017-12-02T14:22:23Z</time>
      </trkpt>
      <trkpt lat="59.202187580263" lon="17.754907120487">
        <ele>53.2</ele>
        <time>2017-12-02T14:22:25Z</time>
      </trkpt>
      <trkpt lat="59.202226891374" lon="17.754721126126">
        <ele>53.2</ele>
        <time>2017-12-02T14:22:27Z</time>
      </trkpt>
      <trkpt lat="59.202273997652" lon="17.754548542805">
        <ele>53.2</ele>
        <time>2017-12-02T14:22:29Z</time>
      </trkpt>
      <trkpt lat="59.202332503314" lon="17.754387861782">
        <ele>52.8</ele>
        <time>2017-12-02T14:22:31Z</time>
      </trkpt>
      <trkpt lat="59.202377430298" lon="17.754218212126">
        <ele>52.6</ele>
        <time>2017-12-02T14:22:33Z</time>
      </trkpt>
      <trkpt lat="59.202411293174" lon="17.754037749819">
        <ele>52.6</ele>
        <time>2017-12-02T14:22:35Z</time>
      </trkpt>
      <trkpt lat="59.202450688104" lon="17.753873296941">
        <ele>52.6</ele>
        <time>2017-12-02T14:22:37Z</time>
      </trkpt>
      <trkpt lat="59.202507936481" lon="17.753788304475">
        <ele>52.6</ele>
        <time>2017-12-02T14:22:39Z</time>
      </trkpt>
      <trkpt lat="59.202574991681" lon="17.753737510161">
        <ele>52.6</ele>
        <time>2017-12-02T14:22:41Z</time>
      </trkpt>
      <trkpt lat="59.202641208691" lon="17.753674142997">
        <ele>53</ele>
        <time>2017-12-02T14:22:43Z</time>
      </trkpt>
      <trkpt lat="59.202707844796" lon="17.753603148304">
        <ele>53.4</ele>
        <time>2017-12-02T14:22:45Z</time>
      </trkpt>
      <trkpt lat="59.202739612197" lon="17.753564591564">
        <ele>53.8</ele>
        <time>2017-12-02T14:22:46Z</time>
      </trkpt>
      <trkpt lat="59.202773894168" lon="17.75352720829">
        <ele>54.2</ele>
        <time>2017-12-02T14:22:47Z</time>
      </trkpt>
      <trkpt lat="59.202807086492" lon="17.753490663206">
        <ele>54.8</ele>
        <time>2017-12-02T14:22:48Z</time>
      </trkpt>
      <trkpt lat="59.202840530273" lon="17.753453699027">
        <ele>55.4</ele>
        <time>2017-12-02T14:22:49Z</time>
      </trkpt>
      <trkpt lat="59.202909010396" lon="17.753374909167">
        <ele>56</ele>
        <time>2017-12-02T14:22:51Z</time>
      </trkpt>
      <trkpt lat="59.202979334537" lon="17.753307434872">
        <ele>56.4</ele>
        <time>2017-12-02T14:22:53Z</time>
      </trkpt>
      <trkpt lat="59.203056448017" lon="17.753249264486">
        <ele>56.8</ele>
        <time>2017-12-02T14:22:55Z</time>
      </trkpt>
      <trkpt lat="59.203095507671" lon="17.753225543709">
        <ele>57.2</ele>
        <time>2017-12-02T14:22:56Z</time>
      </trkpt>
      <trkpt lat="59.203132052755" lon="17.75320450514">
        <ele>57.4</ele>
        <time>2017-12-02T14:22:57Z</time>
      </trkpt>
      <trkpt lat="59.203198772679" lon="17.753174665576">
        <ele>57.6</ele>
        <time>2017-12-02T14:22:59Z</time>
      </trkpt>
      <trkpt lat="59.203253506486" lon="17.753178185974">
        <ele>58</ele>
        <time>2017-12-02T14:23:01Z</time>
      </trkpt>
      <trkpt lat="59.203277981634" lon="17.753204253683">
        <ele>58.2</ele>
        <time>2017-12-02T14:23:02Z</time>
      </trkpt>
      <trkpt lat="59.203297846737" lon="17.753245744088">
        <ele>58.6</ele>
        <time>2017-12-02T14:23:03Z</time>
      </trkpt>
      <trkpt lat="59.203317376564" lon="17.753352278037">
        <ele>59</ele>
        <time>2017-12-02T14:23:05Z</time>
      </trkpt>
      <trkpt lat="59.203326009921" lon="17.753462164746">
        <ele>59.6</ele>
        <time>2017-12-02T14:23:07Z</time>
      </trkpt>
      <trkpt lat="59.203330368509" lon="17.753567357591">
        <ele>60.2</ele>
        <time>2017-12-02T14:23:09Z</time>
      </trkpt>
      <trkpt lat="59.203339001866" lon="17.753665761097">
        <ele>60.6</ele>
        <time>2017-12-02T14:23:11Z</time>
      </trkpt>
      <trkpt lat="59.203346042662" lon="17.75371161009">
        <ele>61</ele>
        <time>2017-12-02T14:23:12Z</time>
      </trkpt>
      <trkpt lat="59.203356352399" lon="17.753756201798">
        <ele>61.2</ele>
        <time>2017-12-02T14:23:13Z</time>
      </trkpt>
      <trkpt lat="59.203368673792" lon="17.753858963892">
        <ele>62</ele>
        <time>2017-12-02T14:23:15Z</time>
      </trkpt>
      <trkpt lat="59.203357525865" lon="17.753911434586">
        <ele>62.4</ele>
        <time>2017-12-02T14:23:16Z</time>
      </trkpt>
      <trkpt lat="59.203333553631" lon="17.753948063489">
        <ele>62.8</ele>
        <time>2017-12-02T14:23:17Z</time>
      </trkpt>
      <trkpt lat="59.203257529798" lon="17.753993493387">
        <ele>63.2</ele>
        <time>2017-12-02T14:23:19Z</time>
      </trkpt>
      <trkpt lat="59.203217380497" lon="17.754024422598">
        <ele>63.4</ele>
        <time>2017-12-02T14:23:20Z</time>
      </trkpt>
      <trkpt lat="59.203179578128" lon="17.754059039845">
        <ele>63.4</ele>
        <time>2017-12-02T14:23:21Z</time>
      </trkpt>
      <trkpt lat="59.203112690566" lon="17.754141182465">
        <ele>63.6</ele>
        <time>2017-12-02T14:23:23Z</time>
      </trkpt>
      <trkpt lat="59.203051837972" lon="17.754236652306">
        <ele>63.6</ele>
        <time>2017-12-02T14:23:25Z</time>
      </trkpt>
      <trkpt lat="59.20302685991" lon="17.754290380285">
        <ele>63.6</ele>
        <time>2017-12-02T14:23:26Z</time>
      </trkpt>
      <trkpt lat="59.203008000635" lon="17.754349807956">
        <ele>63.6</ele>
        <time>2017-12-02T14:23:27Z</time>
      </trkpt>
      <trkpt lat="59.202982771116" lon="17.75448023032">
        <ele>63.6</ele>
        <time>2017-12-02T14:23:29Z</time>
      </trkpt>
      <trkpt lat="59.202962486918" lon="17.754618950765">
        <ele>63.4</ele>
        <time>2017-12-02T14:23:31Z</time>
      </trkpt>
      <trkpt lat="59.202952177181" lon="17.754675780047">
        <ele>63.4</ele>
        <time>2017-12-02T14:23:32Z</time>
      </trkpt>
    </trkseg>
  </trk>
</gpx>